createdAt,value
2022-10-17T00:00:31.527Z,48.10
2022-10-17T00:02:34.759Z,45.90
2022-10-17T00:04:38.087Z,42.73
2022-10-17T00:06:41.513Z,47.27
2022-10-17T00:08:45.585Z,40.80
2022-10-17T00:10:59.728Z,36.63
2022-10-17T00:13:03.011Z,37.60
2022-10-17T00:15:09.932Z,34.27
2022-10-17T00:17:13.255Z,32.93
2022-10-17T00:19:16.655Z,30.03
2022-10-17T00:21:20.953Z,32.90
2022-10-17T00:23:24.177Z,36.73
2022-10-17T00:25:27.331Z,29.70
2022-10-17T00:27:30.873Z,36.70
2022-10-17T00:29:34.383Z,34.63
2022-10-17T00:31:38.972Z,29.50
2022-10-17T00:33:43.237Z,27.80
2022-10-17T00:35:46.296Z,31.33
2022-10-17T00:37:49.457Z,34.40
2022-10-17T00:39:52.745Z,31.90
2022-10-17T00:41:55.871Z,34.73
2022-10-17T00:44:00.344Z,39.83
2022-10-17T00:46:03.431Z,44.53
2022-10-17T00:48:12.366Z,52.60
2022-10-17T00:50:17.174Z,52.10
2022-10-17T00:52:25.664Z,57.10
2022-10-17T00:54:30.743Z,50.33
2022-10-17T00:56:34.787Z,43.73
2022-10-17T00:58:38.304Z,49.63
2022-10-17T01:00:42.697Z,44.00
2022-10-17T01:02:46.262Z,38.50
2022-10-17T01:04:53.225Z,41.57
2022-10-17T01:06:56.708Z,34.03
2022-10-17T01:09:00.203Z,35.23
2022-10-17T01:11:07.212Z,31.33
2022-10-17T01:13:15.282Z,32.50
2022-10-17T01:15:30.394Z,32.57
2022-10-17T01:17:42.958Z,31.10
2022-10-17T01:20:13.293Z,36.50
2022-10-17T01:22:18.874Z,32.47
2022-10-17T01:24:35.579Z,34.93
2022-10-17T01:26:56.635Z,37.60
2022-10-17T01:29:44.644Z,28.17
2022-10-17T01:31:52.175Z,33.60
2022-10-17T01:34:01.531Z,35.17
2022-10-17T01:36:11.031Z,31.40
2022-10-17T01:38:19.751Z,35.47
2022-10-17T01:40:24.513Z,32.00
2022-10-17T01:42:30.581Z,28.70
2022-10-17T01:44:37.961Z,29.03
2022-10-17T01:46:42.228Z,33.13
2022-10-17T01:48:48.081Z,32.67
2022-10-17T01:50:54.970Z,30.57
2022-10-17T01:53:03.383Z,30.13
2022-10-17T01:55:11.670Z,33.80
2022-10-17T01:57:17.445Z,31.13
2022-10-17T01:59:24.082Z,28.17
2022-10-17T02:01:31.090Z,30.57
2022-10-17T02:03:35.785Z,25.27
2022-10-17T02:05:43.704Z,35.47
2022-10-17T02:07:47.031Z,27.50
2022-10-17T02:09:50.517Z,23.43
2022-10-17T02:12:15.770Z,27.10
2022-10-17T02:14:33.432Z,22.77
2022-10-17T02:16:40.511Z,26.03
2022-10-17T02:18:49.724Z,27.50
2022-10-17T02:21:02.013Z,28.73
2022-10-17T02:23:12.185Z,31.93
2022-10-17T02:25:22.449Z,28.17
2022-10-17T02:27:34.739Z,29.17
2022-10-17T02:29:46.342Z,29.17
2022-10-17T02:31:55.645Z,26.53
2022-10-17T02:34:03.123Z,25.13
2022-10-17T02:36:13.063Z,25.00
2022-10-17T02:38:17.075Z,24.30
2022-10-17T02:40:23.855Z,30.93
2022-10-17T02:42:28.806Z,23.80
2022-10-17T02:44:34.011Z,23.00
2022-10-17T02:46:38.632Z,26.70
2022-10-17T02:48:48.166Z,25.87
2022-10-17T02:50:59.167Z,24.37
2022-10-17T02:53:10.465Z,34.63
2022-10-17T02:55:18.588Z,27.13
2022-10-17T02:57:26.683Z,34.37
2022-10-17T03:01:43.088Z,53.17
2022-10-17T03:03:46.426Z,26.27
2022-10-17T03:05:49.815Z,146.50
2022-10-17T03:07:53.557Z,55.40
2022-10-17T03:09:58.211Z,24.17
2022-10-17T03:12:01.523Z,83.67
2022-10-17T03:14:04.785Z,27.53
2022-10-17T03:16:08.326Z,27.43
2022-10-17T03:18:11.601Z,46.37
2022-10-17T03:20:14.791Z,65.70
2022-10-17T03:22:18.083Z,86.33
2022-10-17T03:24:21.682Z,43.77
2022-10-17T03:26:26.677Z,34.13
2022-10-17T03:28:29.857Z,41.17
2022-10-17T03:30:33.512Z,33.25
2022-10-17T03:32:37.049Z,112.32
2022-10-17T03:34:40.334Z,57.70
2022-10-17T03:36:43.871Z,33.53
2022-10-17T03:38:48.190Z,58.97
2022-10-17T03:40:56.817Z,24.40
2022-10-17T03:43:01.851Z,19.03
2022-10-17T03:45:05.636Z,22.10
2022-10-17T03:47:11.856Z,26.50
2022-10-17T03:49:17.365Z,19.07
2022-10-17T03:51:21.144Z,24.10
2022-10-17T03:53:24.233Z,26.30
2022-10-17T03:55:27.611Z,22.00
2022-10-17T03:57:31.043Z,29.33
2022-10-17T03:59:35.996Z,31.63
2022-10-17T04:01:39.182Z,20.03
2022-10-17T04:03:42.954Z,20.57
2022-10-17T04:05:46.433Z,24.67
2022-10-17T04:07:50.029Z,18.53
2022-10-17T04:09:53.535Z,22.03
2022-10-17T04:11:56.770Z,23.20
2022-10-17T04:14:00.486Z,24.80
2022-10-17T04:16:07.635Z,28.57
2022-10-17T04:18:10.903Z,23.48
2022-10-17T04:20:14.705Z,25.60
2022-10-17T04:22:18.265Z,23.77
2022-10-17T04:24:21.413Z,27.23
2022-10-17T04:26:25.187Z,24.13
2022-10-17T04:28:29.659Z,29.57
2022-10-17T04:30:33.076Z,29.50
2022-10-17T04:32:39.747Z,25.00
2022-10-17T04:34:43.420Z,24.53
2022-10-17T04:36:47.267Z,31.53
2022-10-17T04:38:50.743Z,22.27
2022-10-17T04:40:53.949Z,21.23
2022-10-17T04:42:57.264Z,20.77
2022-10-17T04:45:01.961Z,21.95
2022-10-17T04:47:05.208Z,20.08
2022-10-17T04:49:10.521Z,25.27
2022-10-17T04:51:15.907Z,27.45
2022-10-17T04:53:19.110Z,23.60
2022-10-17T04:55:22.361Z,19.08
2022-10-17T04:57:25.920Z,23.83
2022-10-17T04:59:31.370Z,24.43
2022-10-17T05:01:35.102Z,23.77
2022-10-17T05:03:39.066Z,23.00
2022-10-17T05:05:44.776Z,26.38
2022-10-17T05:07:48.206Z,24.13
2022-10-17T05:09:51.666Z,24.43
2022-10-17T05:11:54.968Z,27.20
2022-10-17T05:14:00.127Z,26.40
2022-10-17T05:16:03.765Z,23.20
2022-10-17T05:18:08.203Z,32.00
2022-10-17T05:20:12.716Z,23.33
2022-10-17T05:22:17.240Z,21.20
2022-10-17T05:24:20.464Z,20.00
2022-10-17T05:26:24.310Z,25.13
2022-10-17T05:28:27.534Z,20.67
2022-10-17T05:30:35.109Z,18.52
2022-10-17T05:32:41.146Z,23.23
2022-10-17T05:34:44.467Z,27.53
2022-10-17T05:36:47.769Z,29.80
2022-10-17T05:38:53.271Z,21.53
2022-10-17T05:40:59.606Z,25.20
2022-10-17T05:43:02.759Z,22.30
2022-10-17T05:45:07.081Z,19.90
2022-10-17T05:47:10.575Z,21.50
2022-10-17T05:49:19.727Z,17.40
2022-10-17T05:51:35.955Z,25.13
2022-10-17T05:53:41.535Z,17.90
2022-10-17T05:55:46.226Z,22.60
2022-10-17T05:57:49.568Z,18.90
2022-10-17T05:59:52.757Z,27.97
2022-10-17T06:01:56.354Z,22.23
2022-10-17T06:03:59.620Z,19.43
2022-10-17T06:06:07.062Z,29.67
2022-10-17T06:08:10.379Z,22.93
2022-10-17T06:10:16.321Z,27.80
2022-10-17T06:12:21.330Z,23.97
2022-10-17T06:14:24.929Z,26.30
2022-10-17T06:16:28.547Z,30.10
2022-10-17T06:18:32.050Z,30.67
2022-10-17T06:20:35.840Z,34.13
2022-10-17T06:22:39.421Z,31.17
2022-10-17T06:24:42.666Z,30.30
2022-10-17T06:26:47.997Z,31.77
2022-10-17T06:28:52.872Z,21.77
2022-10-17T06:30:56.678Z,24.80
2022-10-17T06:33:00.427Z,29.37
2022-10-17T06:35:07.228Z,23.83
2022-10-17T06:37:13.351Z,26.03
2022-10-17T06:39:20.058Z,21.77
2022-10-17T06:41:23.835Z,29.60
2022-10-17T06:43:29.157Z,21.40
2022-10-17T06:45:39.615Z,50.37
2022-10-17T06:47:42.993Z,23.27
2022-10-17T06:49:46.569Z,20.60
2022-10-17T06:51:50.106Z,20.30
2022-10-17T06:53:53.991Z,18.60
2022-10-17T06:56:01.532Z,23.90
2022-10-17T06:58:05.304Z,25.13
2022-10-17T07:00:10.593Z,20.27
2022-10-17T07:02:18.631Z,23.17
2022-10-17T07:04:26.352Z,19.70
2022-10-17T07:06:34.012Z,24.43
2022-10-17T07:08:43.964Z,19.63
2022-10-17T07:10:47.614Z,14.53
2022-10-17T07:12:53.740Z,18.13
2022-10-17T07:15:15.025Z,21.53
2022-10-17T07:17:21.730Z,14.30
2022-10-17T07:19:25.788Z,12.80
2022-10-17T07:21:35.206Z,12.17
2022-10-17T07:23:42.583Z,10.23
2022-10-17T07:25:53.899Z,11.40
2022-10-17T07:27:58.151Z,12.63
2022-10-17T07:30:02.220Z,8.93
2022-10-17T07:32:08.896Z,9.37
2022-10-17T07:34:43.064Z,10.47
2022-10-17T07:37:04.288Z,12.47
2022-10-17T07:39:15.197Z,8.97
2022-10-17T07:41:21.836Z,10.17
2022-10-17T07:43:43.849Z,10.63
2022-10-17T07:45:57.004Z,11.60
2022-10-17T07:48:00.492Z,11.93
2022-10-17T07:50:04.031Z,10.83
2022-10-17T07:52:07.554Z,11.70
2022-10-17T07:54:12.727Z,10.57
2022-10-17T07:56:16.219Z,10.70
2022-10-17T07:58:19.716Z,9.70
2022-10-17T08:00:23.543Z,9.97
2022-10-17T08:02:28.664Z,10.30
2022-10-17T08:04:32.503Z,12.73
2022-10-17T08:06:35.993Z,10.97
2022-10-17T08:08:39.552Z,9.93
2022-10-17T08:10:44.456Z,9.80
2022-10-17T08:12:48.021Z,10.87
2022-10-17T08:14:51.629Z,14.23
2022-10-17T08:16:59.601Z,10.53
2022-10-17T08:19:03.628Z,10.97
2022-10-17T08:21:08.483Z,12.93
2022-10-17T08:23:12.520Z,10.47
2022-10-17T08:25:16.365Z,12.43
2022-10-17T08:27:24.807Z,10.23
2022-10-17T08:29:28.629Z,10.40
2022-10-17T08:31:33.576Z,9.17
2022-10-17T08:33:37.283Z,9.67
2022-10-17T08:35:40.824Z,9.50
2022-10-17T08:37:44.614Z,12.13
2022-10-17T08:39:48.130Z,12.90
2022-10-17T08:41:56.952Z,9.97
2022-10-17T08:44:07.548Z,9.53
2022-10-17T08:46:11.535Z,10.77
2022-10-17T08:48:16.858Z,11.40
2022-10-17T08:50:29.414Z,14.33
2022-10-17T08:52:37.772Z,10.50
2022-10-17T08:54:43.226Z,16.23
2022-10-17T08:56:49.457Z,14.67
2022-10-17T08:58:54.110Z,17.17
2022-10-17T09:01:06.920Z,14.30
2022-10-17T09:03:19.289Z,13.93
2022-10-17T09:05:27.362Z,13.60
2022-10-17T09:07:35.041Z,19.73
2022-10-17T09:09:42.504Z,15.70
2022-10-17T09:11:53.558Z,13.10
2022-10-17T09:14:03.104Z,14.73
2022-10-17T09:16:18.749Z,17.47
2022-10-17T09:18:25.930Z,15.60
2022-10-17T09:20:32.153Z,16.40
2022-10-17T09:22:38.860Z,15.53
2022-10-17T09:24:44.477Z,14.50
2022-10-17T09:26:48.366Z,16.73
2022-10-17T09:28:55.166Z,16.73
2022-10-17T09:31:01.612Z,17.17
2022-10-17T09:33:23.200Z,18.17
2022-10-17T09:35:36.015Z,16.47
2022-10-17T09:37:39.997Z,17.60
2022-10-17T09:39:44.406Z,16.10
2022-10-17T09:41:50.175Z,16.23
2022-10-17T09:43:55.184Z,18.23
2022-10-17T09:46:04.110Z,17.20
2022-10-17T09:48:10.417Z,16.43
2022-10-17T09:50:19.106Z,15.70
2022-10-17T09:52:24.239Z,16.03
2022-10-17T09:54:29.864Z,17.53
2022-10-17T09:56:33.504Z,18.27
2022-10-17T09:58:43.714Z,19.23
2022-10-17T10:00:49.199Z,17.83
2022-10-17T10:02:53.055Z,17.60
2022-10-17T10:05:06.695Z,17.67
2022-10-17T10:07:14.102Z,20.93
2022-10-17T10:09:23.406Z,20.10
2022-10-17T10:11:28.091Z,18.90
2022-10-17T10:13:31.832Z,18.67
2022-10-17T10:15:37.856Z,18.83
2022-10-17T10:17:42.968Z,18.80
2022-10-17T10:19:51.742Z,20.97
2022-10-17T10:21:57.199Z,17.80
2022-10-17T10:24:13.020Z,18.17
2022-10-17T10:26:25.461Z,19.83
2022-10-17T10:28:30.244Z,19.03
2022-10-17T10:30:36.203Z,18.07
2022-10-17T10:32:42.770Z,19.40
2022-10-17T10:34:48.963Z,18.33
2022-10-17T10:36:58.343Z,17.97
2022-10-17T10:39:04.008Z,20.57
2022-10-17T10:41:11.120Z,18.67
2022-10-17T10:43:23.424Z,16.87
2022-10-17T10:45:48.078Z,18.17
2022-10-17T10:47:52.891Z,18.73
2022-10-17T10:50:08.853Z,17.20
2022-10-17T10:52:15.898Z,16.37
2022-10-17T10:54:22.001Z,18.00
2022-10-17T10:56:29.161Z,17.63
2022-10-17T10:58:42.175Z,18.37
2022-10-17T11:00:46.835Z,21.27
2022-10-17T11:02:53.889Z,27.30
2022-10-17T11:05:00.281Z,19.17
2022-10-17T11:07:05.772Z,18.43
2022-10-17T11:09:14.303Z,22.47
2022-10-17T11:11:23.884Z,18.30
2022-10-17T11:13:32.730Z,17.93
2022-10-17T11:15:38.554Z,18.40
2022-10-17T11:17:44.771Z,17.70
2022-10-17T11:19:52.782Z,16.67
2022-10-17T11:22:03.353Z,16.47
2022-10-17T11:24:10.511Z,19.47
2022-10-17T11:26:16.472Z,17.57
2022-10-17T11:28:20.783Z,16.93
2022-10-17T11:30:28.226Z,16.10
2022-10-17T11:32:33.300Z,16.63
2022-10-17T11:34:39.877Z,16.40
2022-10-17T11:36:45.160Z,15.77
2022-10-17T11:38:51.677Z,16.00
2022-10-17T11:40:57.268Z,15.70
2022-10-17T11:43:02.274Z,16.03
2022-10-17T11:45:08.172Z,15.43
2022-10-17T11:47:22.505Z,15.77
2022-10-17T11:49:28.976Z,15.47
2022-10-17T11:54:02.836Z,16.53
2022-10-17T11:56:06.612Z,16.97
2022-10-17T12:00:48.806Z,18.13
2022-10-17T12:02:59.774Z,18.60
2022-10-17T12:05:06.901Z,16.70
2022-10-17T12:07:15.356Z,15.57
2022-10-17T12:09:22.071Z,17.17
2022-10-17T12:11:34.619Z,26.10
2022-10-17T12:13:48.583Z,16.80
2022-10-17T12:15:52.316Z,14.70
2022-10-17T12:17:58.402Z,15.40
2022-10-17T12:20:21.335Z,16.97
2022-10-17T12:22:26.331Z,16.00
2022-10-17T12:24:34.872Z,15.87
2022-10-17T12:26:38.429Z,16.77
2022-10-17T12:28:44.438Z,16.70
2022-10-17T12:30:58.318Z,17.00
2022-10-17T12:33:08.598Z,16.33
2022-10-17T12:35:20.352Z,15.40
2022-10-17T12:37:58.565Z,16.40
2022-10-17T12:40:02.996Z,16.43
2022-10-17T12:42:29.116Z,16.07
2022-10-17T12:44:39.159Z,14.63
2022-10-17T12:46:51.178Z,14.47
2022-10-17T12:49:03.345Z,14.53
2022-10-17T12:51:34.170Z,15.17
2022-10-17T12:53:39.219Z,16.33
2022-10-17T12:55:42.873Z,15.60
2022-10-17T12:57:50.807Z,13.87
2022-10-17T12:59:57.977Z,14.40
2022-10-17T13:02:03.752Z,16.13
2022-10-17T13:04:11.434Z,16.53
2022-10-17T13:06:18.085Z,18.30
2022-10-17T13:08:24.281Z,13.83
2022-10-17T13:10:29.800Z,16.57
2022-10-17T13:12:38.912Z,15.20
2022-10-17T13:14:44.784Z,16.80
2022-10-17T13:16:53.804Z,16.30
2022-10-17T13:19:00.620Z,16.50
2022-10-17T13:21:06.651Z,15.87
2022-10-17T13:23:23.949Z,16.40
2022-10-17T13:25:28.588Z,16.77
2022-10-17T13:27:33.150Z,16.40
2022-10-17T13:29:38.475Z,16.33
2022-10-17T13:31:43.628Z,17.23
2022-10-17T13:33:46.957Z,20.67
2022-10-17T13:36:05.937Z,15.97
2022-10-17T13:38:10.941Z,17.10
2022-10-17T13:40:44.038Z,16.30
2022-10-17T13:42:42.776Z,18.17
2022-10-17T13:44:47.013Z,17.40
2022-10-17T13:46:51.264Z,16.60
2022-10-17T13:48:54.896Z,18.30
2022-10-17T13:51:02.801Z,17.80
2022-10-17T13:53:09.419Z,18.40
2022-10-17T13:55:17.893Z,18.70
2022-10-17T13:57:22.921Z,16.33
2022-10-17T13:59:28.070Z,19.67
2022-10-17T14:01:32.185Z,18.10
2022-10-17T14:03:47.143Z,18.77
2022-10-17T14:06:02.555Z,20.63
2022-10-17T14:08:12.025Z,22.20
2022-10-17T14:10:21.956Z,22.60
2022-10-17T14:12:25.856Z,21.07
2022-10-17T14:14:46.116Z,23.53
2022-10-17T14:16:54.299Z,22.67
2022-10-17T14:18:57.541Z,29.73
2022-10-17T14:23:33.747Z,22.37
2022-10-17T14:25:39.876Z,24.47
2022-10-17T14:27:57.525Z,24.87
2022-10-17T14:30:03.108Z,26.27
2022-10-17T14:32:08.730Z,24.53
2022-10-17T14:34:23.516Z,24.70
2022-10-17T14:36:37.800Z,25.33
2022-10-17T14:38:45.534Z,26.40
2022-10-17T14:41:15.654Z,30.73
2022-10-17T14:43:25.227Z,29.50
2022-10-17T14:45:30.661Z,26.53
2022-10-17T14:47:49.491Z,26.47
2022-10-17T14:50:04.447Z,33.33
2022-10-17T14:52:27.909Z,27.13
2022-10-17T14:54:32.638Z,27.83
2022-10-17T14:56:41.328Z,30.60
2022-10-17T14:58:44.802Z,27.43
2022-10-17T15:00:48.258Z,31.30
2022-10-17T15:02:52.358Z,36.90
2022-10-17T15:04:55.923Z,28.27
2022-10-17T15:06:58.950Z,29.60
2022-10-17T15:09:02.592Z,28.53
2022-10-17T15:11:05.877Z,33.43
2022-10-17T15:13:27.993Z,28.73
2022-10-17T15:15:33.653Z,27.17
2022-10-17T15:17:37.137Z,35.00
2022-10-17T15:19:40.234Z,32.40
2022-10-17T15:21:47.256Z,30.27
2022-10-17T15:23:50.912Z,31.90
2022-10-17T15:25:54.350Z,29.33
2022-10-17T15:27:57.998Z,28.53
2022-10-17T15:30:04.073Z,30.03
2022-10-17T15:32:07.573Z,30.03
2022-10-17T15:34:10.988Z,30.43
2022-10-17T15:36:22.375Z,31.63
2022-10-17T15:38:25.723Z,32.70
2022-10-17T15:40:31.604Z,37.10
2022-10-17T15:42:35.159Z,36.00
2022-10-17T15:44:38.422Z,31.80
2022-10-17T15:46:43.899Z,32.93
2022-10-17T15:48:47.402Z,35.70
2022-10-17T15:50:50.535Z,32.40
2022-10-17T15:52:54.174Z,30.83
2022-10-17T15:54:59.722Z,31.93
2022-10-17T15:57:05.942Z,28.20
2022-10-17T15:59:13.647Z,36.07
2022-10-17T16:01:20.586Z,30.47
2022-10-17T16:03:25.286Z,36.57
2022-10-17T16:05:29.188Z,34.30
2022-10-17T16:07:32.905Z,34.50
2022-10-17T16:09:37.465Z,32.27
2022-10-17T16:11:42.602Z,31.50
2022-10-17T16:13:50.932Z,30.37
2022-10-17T16:15:54.361Z,31.87
2022-10-17T16:18:01.635Z,37.13
2022-10-17T16:20:09.745Z,34.70
2022-10-17T16:22:22.092Z,38.00
2022-10-17T16:24:25.827Z,35.13
2022-10-17T16:26:29.592Z,31.73
2022-10-17T16:28:33.063Z,36.00
2022-10-17T16:30:44.287Z,35.67
2022-10-17T16:32:47.816Z,33.33
2022-10-17T16:34:51.314Z,39.20
2022-10-17T16:36:56.646Z,34.60
2022-10-17T16:38:59.919Z,36.70
2022-10-17T16:41:03.128Z,39.13
2022-10-17T16:43:06.680Z,39.87
2022-10-17T16:45:11.309Z,34.37
2022-10-17T16:47:14.804Z,36.80
2022-10-17T16:49:18.321Z,36.23
2022-10-17T16:51:22.568Z,35.83
2022-10-17T16:53:27.946Z,34.27
2022-10-17T16:55:31.378Z,36.83
2022-10-17T16:57:34.909Z,42.30
2022-10-17T16:59:38.285Z,38.07
2022-10-17T17:01:41.766Z,28.83
2022-10-17T17:03:46.581Z,44.83
2022-10-17T17:05:52.147Z,36.80
2022-10-17T17:07:56.323Z,43.80
2022-10-17T17:10:00.841Z,41.80
2022-10-17T17:12:04.166Z,36.00
2022-10-17T17:14:08.254Z,38.13
2022-10-17T17:16:13.207Z,39.93
2022-10-17T17:18:16.322Z,37.03
2022-10-17T17:20:19.520Z,38.47
2022-10-17T17:22:22.828Z,35.70
2022-10-17T17:24:25.964Z,37.50
2022-10-17T17:26:35.958Z,38.50
2022-10-17T17:28:40.310Z,38.40
2022-10-17T17:30:43.843Z,44.77
2022-10-17T17:32:47.056Z,42.37
2022-10-17T17:34:50.168Z,49.80
2022-10-17T17:36:53.764Z,30.93
2022-10-17T17:38:58.636Z,39.00
2022-10-17T17:41:02.664Z,41.67
2022-10-17T17:43:07.239Z,41.77
2022-10-17T17:45:11.311Z,41.47
2022-10-17T17:47:14.392Z,44.23
2022-10-17T17:49:17.806Z,32.47
2022-10-17T17:51:28.332Z,40.03
2022-10-17T17:53:32.588Z,49.57
2022-10-17T17:55:35.972Z,43.50
2022-10-17T17:57:39.328Z,49.23
2022-10-17T17:59:44.051Z,44.43
2022-10-17T18:01:47.538Z,32.97
2022-10-17T18:03:52.076Z,43.47
2022-10-17T18:05:55.493Z,37.27
2022-10-17T18:07:59.055Z,36.67
2022-10-17T18:10:02.268Z,37.80
2022-10-17T18:12:05.947Z,42.40
2022-10-17T18:14:13.179Z,39.70
2022-10-17T18:16:18.069Z,47.40
2022-10-17T18:18:21.216Z,39.10
2022-10-17T18:20:24.954Z,41.90
2022-10-17T18:22:28.282Z,43.60
2022-10-17T18:24:31.697Z,37.23
2022-10-17T18:26:35.323Z,43.70
2022-10-17T18:30:43.473Z,35.90
2022-10-17T18:32:48.166Z,42.57
2022-10-17T18:34:51.581Z,45.57
2022-10-17T18:36:58.943Z,37.90
2022-10-17T18:39:03.054Z,35.97
2022-10-17T18:41:08.248Z,45.20
2022-10-17T18:43:11.333Z,43.53
2022-10-17T18:45:15.687Z,34.50
2022-10-17T18:47:18.911Z,44.00
2022-10-17T18:49:25.140Z,39.63
2022-10-17T18:51:28.831Z,36.33
2022-10-17T18:53:32.511Z,39.47
2022-10-17T18:55:39.587Z,46.07
2022-10-17T18:57:42.847Z,45.17
2022-10-17T18:59:45.995Z,36.60
2022-10-17T19:01:49.833Z,49.87
2022-10-17T19:03:55.260Z,38.43
2022-10-17T19:06:02.367Z,39.23
2022-10-17T19:08:05.645Z,40.40
2022-10-17T19:10:09.213Z,42.83
2022-10-17T19:12:12.486Z,41.93
2022-10-17T19:14:15.808Z,45.57
2022-10-17T19:16:21.710Z,36.93
2022-10-17T19:18:24.868Z,57.70
2022-10-17T19:20:28.079Z,45.80
2022-10-17T19:22:33.239Z,57.67
2022-10-17T19:24:36.661Z,53.33
2022-10-17T19:26:40.929Z,49.53
2022-10-17T19:28:44.456Z,47.60
2022-10-17T19:30:47.679Z,44.93
2022-10-17T19:32:50.840Z,43.07
2022-10-17T19:34:54.177Z,43.20
2022-10-17T19:36:57.421Z,50.50
2022-10-17T19:39:02.909Z,55.20
2022-10-17T19:41:07.994Z,45.23
2022-10-17T19:43:11.225Z,37.20
2022-10-17T19:45:14.684Z,49.07
2022-10-17T19:47:17.735Z,48.50
2022-10-17T19:49:21.170Z,37.80
2022-10-17T19:51:26.299Z,35.30
2022-10-17T19:53:29.755Z,41.53
2022-10-17T19:55:35.946Z,40.70
2022-10-17T19:57:39.142Z,42.27
2022-10-17T19:59:42.338Z,36.93
2022-10-17T20:01:46.398Z,39.30
2022-10-17T20:03:50.097Z,42.80
2022-10-17T20:05:54.208Z,39.20
2022-10-17T20:07:57.581Z,44.97
2022-10-17T20:10:00.736Z,43.10
2022-10-17T20:12:05.492Z,42.53
2022-10-17T20:14:08.741Z,35.70
2022-10-17T20:16:14.634Z,42.07
2022-10-17T20:18:17.881Z,36.93
2022-10-17T20:20:21.128Z,39.40
2022-10-17T20:22:24.356Z,35.87
2022-10-17T20:24:27.524Z,37.03
2022-10-17T20:26:39.588Z,36.53
2022-10-17T20:28:44.939Z,36.80
2022-10-17T20:30:48.277Z,44.00
2022-10-17T20:32:55.069Z,36.83
2022-10-17T20:34:58.755Z,36.80
2022-10-17T20:37:02.322Z,41.90
2022-10-17T20:39:06.154Z,39.10
2022-10-17T20:41:10.737Z,42.20
2022-10-17T20:43:14.865Z,40.23
2022-10-17T20:45:32.011Z,34.03
2022-10-17T20:47:47.182Z,35.60
2022-10-17T20:49:52.479Z,38.93
2022-10-17T20:51:55.706Z,38.87
2022-10-17T20:53:58.860Z,35.20
2022-10-17T20:56:03.510Z,36.17
2022-10-17T20:58:07.315Z,30.47
2022-10-17T21:00:11.870Z,33.43
2022-10-17T21:02:16.594Z,39.90
2022-10-17T21:04:44.695Z,35.90
2022-10-17T21:06:42.892Z,34.07
2022-10-17T21:08:47.151Z,35.03
2022-10-17T21:10:50.343Z,47.33
2022-10-17T21:12:54.530Z,38.33
2022-10-17T21:14:57.866Z,34.47
2022-10-17T21:17:04.954Z,46.63
2022-10-17T21:19:11.641Z,36.97
2022-10-17T21:21:16.920Z,36.20
2022-10-17T21:23:20.236Z,39.30
2022-10-17T21:25:23.530Z,33.77
2022-10-17T21:27:27.228Z,35.80
2022-10-17T21:29:30.490Z,30.30
2022-10-17T21:31:34.879Z,37.07
2022-10-17T21:33:38.153Z,39.80
2022-10-17T21:35:42.719Z,42.80
2022-10-17T21:37:45.807Z,33.00
2022-10-17T21:39:49.145Z,38.80
2022-10-17T21:41:53.046Z,31.20
2022-10-17T21:43:57.436Z,34.67
2022-10-17T21:46:03.911Z,35.70
2022-10-17T21:48:14.485Z,42.83
2022-10-17T21:50:17.755Z,48.60
2022-10-17T21:52:22.477Z,40.43
2022-10-17T21:54:25.679Z,41.40
2022-10-17T21:56:30.791Z,39.77
2022-10-17T21:58:34.782Z,46.23
2022-10-17T22:00:37.935Z,40.70
2022-10-17T22:02:41.020Z,45.00
2022-10-17T22:04:44.159Z,32.30
2022-10-17T22:06:50.979Z,45.30
2022-10-17T22:08:55.995Z,33.37
2022-10-17T22:10:59.553Z,38.30
2022-10-17T22:13:02.916Z,34.57
2022-10-17T22:15:07.164Z,33.10
2022-10-17T22:17:10.348Z,37.33
2022-10-17T22:19:15.793Z,38.90
2022-10-17T22:21:21.178Z,45.60
2022-10-17T22:23:25.965Z,36.53
2022-10-17T22:25:30.642Z,34.23
2022-10-17T22:27:33.968Z,32.30
2022-10-17T22:29:37.580Z,45.40
2022-10-17T22:31:41.186Z,43.13
2022-10-17T22:33:44.760Z,34.97
2022-10-17T22:35:48.586Z,40.77
2022-10-17T22:37:51.673Z,44.20
2022-10-17T22:39:54.946Z,40.80
2022-10-17T22:41:59.578Z,37.37
2022-10-17T22:44:02.950Z,47.87
2022-10-17T22:46:07.794Z,36.37
2022-10-17T22:48:11.065Z,37.77
2022-10-17T22:50:18.262Z,36.20
2022-10-17T22:52:21.558Z,36.83
2022-10-17T22:54:25.043Z,34.27
2022-10-17T22:56:28.334Z,34.50
2022-10-17T22:58:35.813Z,38.37
2022-10-17T23:00:40.430Z,31.10
2022-10-17T23:02:43.626Z,32.90
2022-10-17T23:04:46.817Z,32.50
2022-10-17T23:06:49.947Z,29.90
2022-10-17T23:08:53.793Z,36.17
2022-10-17T23:10:57.100Z,32.03
2022-10-17T23:13:00.336Z,32.50
2022-10-17T23:15:05.413Z,40.43
2022-10-17T23:17:08.798Z,36.80
2022-10-17T23:19:11.992Z,33.73
2022-10-17T23:21:15.481Z,33.60
2022-10-17T23:23:19.383Z,30.73
2022-10-17T23:25:22.776Z,31.90
2022-10-17T23:27:26.228Z,34.83
2022-10-17T23:29:33.798Z,30.80
2022-10-17T23:31:38.484Z,38.43
2022-10-17T23:33:42.217Z,29.43
2022-10-17T23:35:50.090Z,34.47
2022-10-17T23:37:53.626Z,35.73
2022-10-17T23:39:56.982Z,31.20
2022-10-17T23:42:00.257Z,28.83
2022-10-17T23:44:03.753Z,27.00
2022-10-17T23:46:07.768Z,28.93
2022-10-17T23:48:12.484Z,35.50
2022-10-17T23:50:16.388Z,36.33
2022-10-17T23:52:19.601Z,31.30
2022-10-17T23:54:22.786Z,28.53
2022-10-17T23:56:26.094Z,30.83
2022-10-17T23:58:29.355Z,31.40
